Terminal Aerodrome Forecast
Issued by NWS Dallas/Fort Worth, TX

Home | Current Version | Previous Version | Text Only | Print | Product List | Glossary On
Versions: 1 2 3 4 5 6 7 8 9 10 11 12 13 14 15 16 17 18 19 20 21 22 23 24
000
FTUS44 KFWD 312050 AAA
TAFDFW
TAF AMD
KDFW 312050Z 3120/0124 14011KT P6SM FEW070 SCT300
     FM011200 19008KT P6SM FEW100 SCT300=

USA.gov is the U.S. government's official web portal to all federal, state and local government web resources and services.